Terminal Aerodrome Forecast
Issued by NWS

Current Version | Previous Version | Text Only | Print | Product List | Glossary On
Versions: 1 2 3 4 5 6 7 8 9 10 11 12
732
FTUS45 KRIW 262338
TAFWRL
TAF
KWRL 262338Z 2700/2724 32007KT P6SM VCSH SCT080 BKN150
     FM270200 VRB05KT P6SM SCT120
     FM272300 36009KT P6SM VCTS SCT070CB BKN100=

USA.gov is the U.S. government's official web portal to all federal, state and local government web resources and services.